Time;durP1;ratioP1;P1;durP2;ratioP2;P2;SDS_P1;SDS_P2;PMS_P1;PMS_P2;Temp;Humidity;BMP_temperature;BMP_pressure;BME280_temperature;BME280_humidity;BME280_pressure;Samples;Min_cycle;Max_cycle;Signal;HPM_P1;HPM_P2
2021/11/28 00:00:18;;;;;;;40.65;18.73;;;;;;;1.20;80.08;96675.13;5092868;28;20053;-76
2021/11/28 00:02:45;;;;;;;40.60;18.50;;;;;;;1.14;79.84;96671.63;5092921;28;20431;-75
2021/11/28 00:05:10;;;;;;;46.05;20.50;;;;;;;1.10;79.50;96673.28;5092564;28;20042;-76
2021/11/28 00:10:52;;;;;;;46.45;21.27;;;;;;;1.02;79.62;96677.38;5092654;28;20036;-75
2021/11/28 00:13:09;;;;;;;53.03;23.35;;;;;;;1.03;79.42;96688.97;5081690;28;20032;-76
2021/11/28 00:15:36;;;;;;;47.67;20.63;;;;;;;1.03;79.54;96694.38;5092685;28;20020;-76
2021/11/28 00:18:02;;;;;;;50.25;24.92;;;;;;;1.02;80.60;96708.94;5092608;28;20020;-75
2021/11/28 00:20:28;;;;;;;47.38;22.02;;;;;;;0.98;79.66;96726.81;5074212;28;20035;-76
2021/11/28 00:22:53;;;;;;;46.15;22.30;;;;;;;1.00;79.76;96721.94;5092435;28;20020;-75
2021/11/28 00:25:20;;;;;;;43.17;24.45;;;;;;;1.03;79.97;96715.97;5092443;28;20036;-76
2021/11/28 00:27:47;;;;;;;56.15;28.38;;;;;;;1.05;79.70;96708.41;5092359;28;20043;-76
2021/11/28 00:30:24;;;;;;;46.72;22.92;;;;;;;1.08;79.78;96713.25;5091617;28;20044;-76
2021/11/28 00:32:51;;;;;;;43.88;21.45;;;;;;;1.08;79.39;96717.84;5092324;28;20480;-75
2021/11/28 00:35:17;;;;;;;49.97;21.90;;;;;;;1.06;79.79;96714.63;5092355;28;20484;-76
2021/11/28 00:37:42;;;;;;;49.42;23.70;;;;;;;0.97;79.63;96704.41;5092261;28;20081;-76
2021/11/28 00:40:08;;;;;;;59.70;27.02;;;;;;;0.90;79.66;96701.19;5073970;28;20032;-76
2021/11/28 00:42:34;;;;;;;46.47;19.42;;;;;;;0.82;79.26;96693.66;5091938;28;20035;-76
2021/11/28 00:44:59;;;;;;;49.53;21.10;;;;;;;0.68;79.29;96675.38;5091599;28;20396;-75
2021/11/28 00:47:25;;;;;;;46.60;19.40;;;;;;;0.59;78.87;96683.25;5092093;28;20035;-76
2021/11/28 00:50:04;;;;;;;44.45;20.30;;;;;;;0.53;79.20;96703.22;5090594;28;20584;-76
2021/11/28 00:52:31;;;;;;;41.70;17.80;;;;;;;0.44;79.33;96694.06;5091812;28;20026;-77
2021/11/28 00:54:56;;;;;;;37.50;16.33;;;;;;;0.39;79.59;96686.00;5091822;28;20028;-74
2021/11/28 00:57:25;;;;;;;43.58;18.98;;;;;;;0.35;79.67;96693.00;5091600;28;20074;-75
2021/11/28 00:59:51;;;;;;;46.80;19.23;;;;;;;0.32;79.27;96699.78;5091873;28;20492;-75
2021/11/28 01:02:17;;;;;;;33.78;15.07;;;;;;;0.32;79.63;96696.25;5091497;28;20100;-75
2021/11/28 01:04:43;;;;;;;37.20;17.27;;;;;;;0.29;79.26;96686.81;5091633;28;20027;-75
2021/11/28 01:07:09;;;;;;;35.95;15.38;;;;;;;0.21;79.38;96684.69;5091605;28;20372;-75
2021/11/28 01:09:35;;;;;;;35.40;15.57;;;;;;;0.16;79.53;96690.09;5091631;28;20028;-75
2021/11/28 01:12:00;;;;;;;33.72;14.02;;;;;;;0.12;79.73;96689.84;5091106;28;20475;-75
2021/11/28 01:14:26;;;;;;;30.48;14.32;;;;;;;0.11;79.13;96677.44;5091492;28;20032;-75
2021/11/28 01:16:52;;;;;;;28.17;13.88;;;;;;;0.10;79.28;96681.22;5091763;28;20020;-75
2021/11/28 01:19:17;;;;;;;31.70;15.13;;;;;;;0.11;79.97;96680.13;5091043;28;20089;-75
2021/11/28 01:21:56;;;;;;;31.52;14.73;;;;;;;0.13;79.55;96669.88;5090030;28;20380;-75
2021/11/28 01:24:22;;;;;;;44.42;23.83;;;;;;;0.12;79.81;96684.44;5091557;28;20037;-75
2021/11/28 01:26:48;;;;;;;56.70;26.42;;;;;;;0.10;79.90;96692.00;5091335;28;20020;-75
2021/11/28 01:29:13;;;;;;;45.00;21.00;;;;;;;0.08;79.75;96691.44;5091143;28;20077;-75
2021/11/28 01:31:39;;;;;;;38.42;17.38;;;;;;;0.08;79.58;96696.84;5072772;28;20446;-75
2021/11/28 01:34:05;;;;;;;29.92;13.68;;;;;;;0.06;79.80;96680.91;5091437;28;20453;-75
2021/11/28 01:36:30;;;;;;;29.92;13.30;;;;;;;0.06;79.67;96677.44;5091228;28;20439;-75
2021/11/28 01:38:55;;;;;;;29.33;13.35;;;;;;;0.05;79.67;96686.59;5091399;28;20381;-75
2021/11/28 01:41:21;;;;;;;24.10;11.13;;;;;;;0.05;79.73;96681.22;5091548;28;20069;-75
2021/11/28 01:43:50;;;;;;;23.33;11.25;;;;;;;0.02;79.78;96692.53;5090976;28;20061;-75
2021/11/28 01:46:18;;;;;;;23.93;10.57;;;;;;;-0.01;79.74;96700.09;5072817;28;20396;-75
2021/11/28 01:48:44;;;;;;;25.05;12.60;;;;;;;-0.02;79.75;96689.59;5091115;28;20297;-75
2021/11/28 01:51:09;;;;;;;23.67;11.82;;;;;;;-0.02;79.83;96692.28;5072012;28;20476;-75
2021/11/28 01:53:35;;;;;;;25.75;12.52;;;;;;;-0.03;79.82;96694.16;5091199;28;20032;-75
2021/11/28 01:56:00;;;;;;;24.25;13.30;;;;;;;-0.05;80.20;96680.13;5090826;28;20028;-78
2021/11/28 01:58:26;;;;;;;25.95;13.88;;;;;;;-0.05;79.78;96677.44;5090183;28;20032;-78
2021/11/28 02:00:56;;;;;;;50.22;23.33;;;;;;;-0.08;79.91;96669.09;5090177;28;20416;-78
2021/11/28 02:03:22;;;;;;;37.10;18.52;;;;;;;-0.08;80.36;96661.81;5091434;28;20032;-77
2021/11/28 02:05:54;;;;;;;50.97;20.58;;;;;;;-0.10;80.15;96663.97;5072980;28;20047;-77
2021/11/28 02:08:20;;;;;;;44.47;19.33;;;;;;;-0.11;80.24;96664.25;5090935;28;20103;-76
2021/11/28 02:10:45;;;;;;;65.95;25.15;;;;;;;-0.12;80.04;96674.22;5090846;28;20099;-76
2021/11/28 02:13:11;;;;;;;134.52;34.17;;;;;;;-0.15;80.28;96677.44;5074293;28;20031;-77
2021/11/28 02:15:37;;;;;;;146.02;37.60;;;;;;;-0.19;79.78;96666.41;5092339;28;20558;-75
2021/11/28 02:18:03;;;;;;;100.20;28.23;;;;;;;-0.19;80.33;96663.72;5072363;28;20447;-76
2021/11/28 02:20:31;;;;;;;90.10;27.30;;;;;;;-0.23;80.20;96667.22;5089241;28;20024;-77
2021/11/28 02:22:58;;;;;;;42.70;17.35;;;;;;;-0.26;79.86;96668.56;5072381;28;20365;-76
2021/11/28 02:25:25;;;;;;;46.78;19.52;;;;;;;-0.24;80.11;96660.22;5090317;28;20032;-76
2021/11/28 02:27:54;;;;;;;31.73;16.45;;;;;;;-0.27;80.46;96658.06;5072392;28;20058;-76
2021/11/28 02:30:20;;;;;;;35.15;17.38;;;;;;;-0.27;79.85;96652.69;5089918;28;20427;-77
2021/11/28 02:32:47;;;;;;;54.88;22.42;;;;;;;-0.24;80.19;96655.63;5089778;28;20131;-76
2021/11/28 02:35:14;;;;;;;86.35;28.58;;;;;;;-0.21;80.30;96659.69;5071463;28;20119;-76
2021/11/28 02:37:42;;;;;;;37.38;17.15;;;;;;;-0.16;80.36;96662.34;5089074;28;20034;-76
2021/11/28 02:40:09;;;;;;;31.25;15.02;;;;;;;-0.08;79.99;96663.72;5089909;28;20036;-77
2021/11/28 02:42:35;;;;;;;39.30;15.85;;;;;;;-0.05;80.40;96658.56;5088748;28;20028;-77
2021/11/28 02:45:00;;;;;;;53.08;21.45;;;;;;;-0.07;80.24;96662.63;5089133;28;20039;-73
2021/11/28 02:47:26;;;;;;;47.28;21.55;;;;;;;-0.04;79.72;96657.50;5089629;28;20426;-77
2021/11/28 02:49:51;;;;;;;31.48;16.27;;;;;;;-0.01;80.44;96665.03;5070875;28;20027;-77
2021/11/28 02:52:17;;;;;;;34.05;18.40;;;;;;;0.04;80.22;96668.81;5088566;28;20043;-76
2021/11/28 02:54:43;;;;;;;47.13;21.73;;;;;;;0.07;80.31;96662.88;5089019;28;20032;-76
2021/11/28 02:57:10;;;;;;;50.92;21.85;;;;;;;0.08;80.03;96662.59;5088711;28;20049;-76
2021/11/28 02:59:35;;;;;;;69.45;27.40;;;;;;;0.08;79.93;96665.28;5089367;28;20024;-77
2021/11/28 03:02:01;;;;;;;66.65;26.58;;;;;;;0.12;79.96;96665.56;5089425;28;20048;-77
2021/11/28 03:04:27;;;;;;;48.90;21.73;;;;;;;0.15;79.70;96662.31;5088903;28;20116;-76
2021/11/28 03:06:52;;;;;;;44.67;20.70;;;;;;;0.16;79.83;96666.66;5089381;28;20503;-77
2021/11/28 03:09:17;;;;;;;50.40;21.50;;;;;;;0.17;80.31;96657.47;5088933;28;20044;-76
2021/11/28 03:11:43;;;;;;;55.63;22.00;;;;;;;0.15;80.07;96662.31;5088685;28;20024;-76
2021/11/28 03:14:08;;;;;;;75.45;28.48;;;;;;;0.12;80.12;96662.88;5091812;28;20028;-76
2021/11/28 03:16:34;;;;;;;66.38;25.88;;;;;;;0.14;79.64;96666.91;5074581;28;20048;-76
2021/11/28 03:19:00;;;;;;;68.53;28.00;;;;;;;0.16;79.62;96663.94;5092843;28;20415;-76
2021/11/28 03:21:28;;;;;;;74.38;28.00;;;;;;;0.20;80.21;96662.31;5091891;28;20357;-76
2021/11/28 03:23:57;;;;;;;67.45;27.20;;;;;;;0.19;79.42;96658.00;5073593;28;20064;-76
2021/11/28 03:26:29;;;;;;;77.43;29.65;;;;;;;0.21;79.54;96655.81;5092751;28;20028;-75
2021/11/28 03:29:01;;;;;;;48.28;21.42;;;;;;;0.28;80.00;96659.03;5091449;28;20024;-76
2021/11/28 03:31:31;;;;;;;33.80;16.73;;;;;;;0.35;79.66;96668.75;5091648;28;20147;-76
2021/11/28 03:33:57;;;;;;;35.42;18.27;;;;;;;0.36;79.59;96660.38;5073253;28;20056;-76
2021/11/28 03:36:25;;;;;;;36.95;19.00;;;;;;;0.39;79.56;96662.53;5092531;28;20082;-76
2021/11/28 03:38:51;;;;;;;44.50;19.88;;;;;;;0.41;79.75;96654.94;5092083;28;20031;-76
2021/11/28 03:41:19;;;;;;;39.47;19.10;;;;;;;0.41;80.20;96662.25;5091592;28;20735;-76
2021/11/28 03:43:45;;;;;;;47.25;20.73;;;;;;;0.42;80.00;96655.78;5092154;28;20024;-76
2021/11/28 03:46:12;;;;;;;46.45;21.27;;;;;;;0.43;79.70;96654.69;5092013;28;20051;-76
2021/11/28 03:48:38;;;;;;;47.67;22.10;;;;;;;0.43;79.57;96657.38;5092117;28;20024;-76
2021/11/28 03:51:04;;;;;;;54.35;24.10;;;;;;;0.42;79.35;96653.09;5091790;28;20073;-76
2021/11/28 03:53:29;;;;;;;51.58;23.40;;;;;;;0.42;79.77;96647.69;5091906;28;20464;-76
2021/11/28 03:55:55;;;;;;;44.42;20.70;;;;;;;0.41;79.04;96646.06;5092020;28;20024;-76
2021/11/28 03:58:21;;;;;;;45.38;19.55;;;;;;;0.37;79.24;96643.13;5074000;28;20050;-76
2021/11/28 04:00:47;;;;;;;44.05;19.77;;;;;;;0.29;79.10;96644.47;5091838;28;20028;-76
2021/11/28 04:03:12;;;;;;;52.63;23.33;;;;;;;0.29;79.70;96641.78;5090382;28;20012;-76
2021/11/28 04:05:39;;;;;;;45.63;20.73;;;;;;;0.31;79.20;96630.75;5091870;28;20035;-76
2021/11/28 04:08:05;;;;;;;42.78;20.35;;;;;;;0.34;79.46;96615.88;5091897;28;20028;-75
2021/11/28 04:10:31;;;;;;;43.90;19.92;;;;;;;0.35;79.20;96617.50;5091626;28;20024;-76
2021/11/28 04:12:56;;;;;;;48.97;20.55;;;;;;;0.35;79.46;96612.09;5091474;28;20035;-76
2021/11/28 04:15:22;;;;;;;42.08;19.80;;;;;;;0.35;79.16;96620.19;5091618;28;20039;-75
2021/11/28 04:17:47;;;;;;;41.70;20.55;;;;;;;0.36;79.21;96619.13;5091814;28;20036;-76
2021/11/28 04:20:13;;;;;;;41.63;18.40;;;;;;;0.29;78.83;96609.44;5091619;28;20024;-76
2021/11/28 04:22:39;;;;;;;39.95;19.42;;;;;;;0.21;78.62;96607.28;5090790;28;20496;-75
2021/11/28 04:25:09;;;;;;;47.42;21.65;;;;;;;0.16;78.99;96617.28;5091284;28;20130;-75
2021/11/28 04:27:34;;;;;;;44.07;21.67;;;;;;;0.13;79.15;96622.16;5089389;28;20020;-76
2021/11/28 04:30:00;;;;;;;48.83;20.98;;;;;;;0.11;79.02;96616.22;5073067;28;20793;-75
2021/11/28 04:32:26;;;;;;;56.72;24.42;;;;;;;0.10;79.00;96617.31;5072321;28;20115;-76
2021/11/28 04:34:51;;;;;;;50.55;24.55;;;;;;;0.13;78.94;96607.88;5091340;28;20040;-75
2021/11/28 04:37:17;;;;;;;65.63;26.92;;;;;;;0.16;78.97;96604.63;5091154;28;20092;-76
2021/11/28 04:39:43;;;;;;;59.15;27.55;;;;;;;0.17;78.97;96603.56;5091349;28;20069;-75
2021/11/28 04:42:08;;;;;;;60.17;27.92;;;;;;;0.18;78.88;96610.56;5090763;28;20036;-76
2021/11/28 04:44:34;;;;;;;61.53;29.05;;;;;;;0.17;78.92;96621.59;5091065;28;20031;-76
2021/11/28 04:46:59;;;;;;;59.78;29.48;;;;;;;0.14;78.92;96631.06;5072956;28;20020;-75
2021/11/28 04:49:25;;;;;;;62.92;30.00;;;;;;;0.07;78.93;96619.75;5091684;28;20024;-76
2021/11/28 04:51:51;;;;;;;69.20;31.00;;;;;;;0.01;79.11;96626.22;5090774;28;20031;-76
2021/11/28 04:54:17;;;;;;;62.05;28.55;;;;;;;0.02;78.50;96617.06;5090803;28;20459;-76
2021/11/28 04:56:43;;;;;;;57.92;26.25;;;;;;;0.05;78.83;96621.91;5091062;28;20024;-76
2021/11/28 04:59:09;;;;;;;51.10;23.10;;;;;;;0.03;78.85;96611.38;5090760;28;20085;-76
2021/11/28 05:01:35;;;;;;;50.42;23.60;;;;;;;0.02;78.82;96617.84;5090744;28;20093;-76
2021/11/28 05:04:01;;;;;;;61.53;26.65;;;;;;;-0.01;78.71;96618.44;5090837;28;20028;-76
2021/11/28 05:06:27;;;;;;;54.95;24.35;;;;;;;0.01;78.89;96607.38;5091055;28;20020;-76
2021/11/28 05:08:52;;;;;;;59.72;25.67;;;;;;;-0.01;78.90;96602.25;5073427;28;20019;-76
2021/11/28 05:11:18;;;;;;;54.63;24.70;;;;;;;-0.08;78.45;96599.84;5090261;28;20480;-76
2021/11/28 05:13:43;;;;;;;55.60;23.90;;;;;;;-0.15;78.41;96591.22;5090423;28;20472;-76
2021/11/28 05:16:09;;;;;;;64.65;28.30;;;;;;;-0.20;78.75;96589.34;5072855;28;20031;-76
2021/11/28 05:18:34;;;;;;;63.22;29.00;;;;;;;-0.20;78.56;96586.66;5090791;28;20024;-76
2021/11/28 05:21:00;;;;;;;65.93;28.63;;;;;;;-0.16;78.60;96593.13;5090377;28;20384;-76
2021/11/28 05:23:25;;;;;;;61.85;27.30;;;;;;;-0.16;78.98;96579.66;5090587;28;20385;-76
2021/11/28 05:25:51;;;;;;;73.93;30.30;;;;;;;-0.11;78.60;96581.50;5090686;28;20376;-76
2021/11/28 05:28:17;;;;;;;79.15;32.50;;;;;;;-0.04;78.86;96582.03;5090499;28;20028;-76
2021/11/28 05:30:42;;;;;;;58.10;25.65;;;;;;;-0.02;78.96;96579.88;5090065;28;20610;-76
2021/11/28 05:33:08;;;;;;;75.00;29.95;;;;;;;0.00;78.92;96576.91;5090322;28;20036;-76
2021/11/28 05:35:34;;;;;;;64.28;27.13;;;;;;;0.01;78.97;96583.91;5090048;28;20481;-76
2021/11/28 05:38:00;;;;;;;65.80;26.88;;;;;;;0.01;78.86;96588.50;5090353;28;20121;-77
2021/11/28 05:40:26;;;;;;;64.55;27.42;;;;;;;0.01;78.68;96583.09;5072307;28;20571;-76
2021/11/28 05:42:53;;;;;;;80.50;33.63;;;;;;;-0.01;78.94;96581.50;5090286;28;20514;-76
2021/11/28 05:45:21;;;;;;;86.18;35.28;;;;;;;0.04;79.12;96574.47;5089863;28;20036;-76
2021/11/28 05:47:48;;;;;;;81.63;32.25;;;;;;;0.05;78.77;96562.63;5072143;28;20032;-76
2021/11/28 05:50:14;;;;;;;85.05;33.30;;;;;;;0.05;78.94;96552.63;5090156;28;20452;-76
2021/11/28 05:52:40;;;;;;;84.68;34.70;;;;;;;0.02;78.67;96555.06;5089977;28;20035;-76
2021/11/28 05:55:07;;;;;;;90.18;35.63;;;;;;;-0.02;78.57;96568.31;5089834;28;20020;-76
2021/11/28 05:57:32;;;;;;;92.72;39.08;;;;;;;-0.02;78.94;96563.72;5089795;28;20031;-76
2021/11/28 05:59:59;;;;;;;99.00;41.35;;;;;;;0.01;79.04;96561.53;5071700;28;20388;-76
2021/11/28 06:02:24;;;;;;;107.88;43.95;;;;;;;0.04;79.00;96564.47;5089862;28;20468;-76
2021/11/28 06:04:50;;;;;;;106.65;42.40;;;;;;;0.08;78.75;96564.75;5089855;28;20034;-76
2021/11/28 06:07:15;;;;;;;98.50;41.05;;;;;;;0.12;78.78;96574.72;5089969;28;20055;-76
2021/11/28 06:09:41;;;;;;;103.05;42.20;;;;;;;0.12;78.96;96574.72;5089725;28;20364;-76
2021/11/28 06:12:07;;;;;;;101.22;41.35;;;;;;;0.16;78.62;96580.38;5089519;28;20020;-76
2021/11/28 06:14:33;;;;;;;88.80;35.80;;;;;;;0.24;78.85;96593.25;5089518;28;20035;-76
2021/11/28 06:16:58;;;;;;;75.53;32.28;;;;;;;0.31;79.02;96581.38;5089652;28;20024;-76
2021/11/28 06:19:24;;;;;;;75.22;32.17;;;;;;;0.38;78.81;96573.81;5089819;28;20016;-76
2021/11/28 06:21:49;;;;;;;64.93;29.25;;;;;;;0.42;78.87;96575.66;5089442;28;20028;-76
2021/11/28 06:24:15;;;;;;;64.90;28.42;;;;;;;0.41;79.35;96582.13;5089493;28;20036;-76
2021/11/28 06:26:41;;;;;;;80.45;32.67;;;;;;;0.46;78.91;96575.94;5089621;28;20103;-76
2021/11/28 06:29:06;;;;;;;69.82;29.55;;;;;;;0.50;79.24;96574.28;5089700;28;20031;-76
2021/11/28 06:31:32;;;;;;;66.25;29.45;;;;;;;0.44;79.21;96568.09;5071264;28;20039;-76
2021/11/28 06:33:57;;;;;;;63.55;27.30;;;;;;;0.46;78.99;96562.44;5071634;28;20077;-76
2021/11/28 06:36:23;;;;;;;67.97;27.33;;;;;;;0.50;79.05;96557.28;5089955;28;20016;-76
2021/11/28 06:38:49;;;;;;;59.28;25.13;;;;;;;0.51;79.41;96548.13;5089560;28;20435;-76
2021/11/28 06:41:14;;;;;;;58.25;25.23;;;;;;;0.53;79.38;96554.84;5088600;28;20077;-76
2021/11/28 06:43:40;;;;;;;49.10;21.23;;;;;;;0.52;79.22;96560.50;5089584;28;20016;-76
2021/11/28 06:46:06;;;;;;;53.10;23.08;;;;;;;0.41;78.76;96555.16;5089138;28;20653;-76
2021/11/28 06:48:31;;;;;;;55.47;25.35;;;;;;;0.41;78.82;96562.47;5091568;28;20069;-76
2021/11/28 06:50:57;;;;;;;68.10;27.80;;;;;;;0.48;79.04;96571.06;5093261;28;20353;-76
2021/11/28 06:53:22;;;;;;;64.55;28.35;;;;;;;0.54;79.04;96564.56;5093574;28;20480;-76
2021/11/28 06:55:48;;;;;;;65.70;29.67;;;;;;;0.55;79.18;96565.34;5093541;28;20039;-77
2021/11/28 06:58:15;;;;;;;63.78;30.25;;;;;;;0.59;79.29;96566.41;5093531;28;20023;-77
2021/11/28 07:00:41;;;;;;;66.43;28.85;;;;;;;0.61;79.22;96558.84;5092943;28;20012;-76
2021/11/28 07:03:06;;;;;;;58.63;26.73;;;;;;;0.61;79.49;96569.66;5093231;28;20032;-77
2021/11/28 07:05:32;;;;;;;62.47;29.77;;;;;;;0.61;79.35;96566.94;5093115;28;20361;-76
2021/11/28 07:07:57;;;;;;;59.05;26.63;;;;;;;0.60;79.48;96570.72;5093509;28;20641;-76
2021/11/28 07:10:23;;;;;;;70.20;30.67;;;;;;;0.57;79.49;96574.81;5075325;28;20028;-76
2021/11/28 07:12:48;;;;;;;59.30;28.58;;;;;;;0.61;79.53;96579.66;5094229;28;20433;-77
2021/11/28 07:15:14;;;;;;;64.32;26.55;;;;;;;0.68;79.63;96569.31;5094059;28;20479;-77
2021/11/28 07:17:39;;;;;;;53.72;25.23;;;;;;;0.73;79.60;96556.63;5075684;28;20489;-77
2021/11/28 07:20:07;;;;;;;57.45;24.48;;;;;;;0.74;79.42;96560.94;5094160;28;20430;-76
2021/11/28 07:22:33;;;;;;;51.42;23.55;;;;;;;0.79;78.92;96552.00;5094099;28;20024;-77
2021/11/28 07:25:00;;;;;;;57.10;26.73;;;;;;;0.79;79.44;96543.91;5093587;28;20028;-77
2021/11/28 07:27:25;;;;;;;51.05;22.60;;;;;;;0.83;79.48;96544.97;5075990;28;20111;-77
2021/11/28 07:29:51;;;;;;;56.88;25.67;;;;;;;0.85;79.17;96550.88;5075444;28;20146;-77
2021/11/28 07:32:16;;;;;;;58.13;26.85;;;;;;;0.83;79.50;96550.34;5093140;28;20078;-77
2021/11/28 07:34:42;;;;;;;46.40;20.35;;;;;;;0.84;79.35;96559.25;5076125;28;20028;-77
2021/11/28 07:37:07;;;;;;;63.22;31.63;;;;;;;0.85;79.18;96577.88;5093613;28;20497;-77
2021/11/28 07:39:33;;;;;;;55.20;24.38;;;;;;;0.89;79.18;96581.63;5093941;28;20032;-77
2021/11/28 07:41:58;;;;;;;46.75;22.45;;;;;;;1.00;79.28;96568.88;5093561;28;20024;-77
2021/11/28 07:44:24;;;;;;;48.35;22.02;;;;;;;0.98;78.80;96562.94;5093558;28;20031;-76
2021/11/28 07:46:49;;;;;;;62.55;26.92;;;;;;;0.97;79.27;96555.94;5093223;28;20055;-76
2021/11/28 07:49:15;;;;;;;49.50;22.35;;;;;;;1.00;78.90;96574.25;5093098;28;20032;-76
2021/11/28 07:51:41;;;;;;;67.65;30.15;;;;;;;1.07;79.34;96575.84;5093450;28;20028;-76
2021/11/28 07:54:06;;;;;;;89.38;38.72;;;;;;;1.17;79.71;96586.56;5093445;28;20032;-76
2021/11/28 07:56:33;;;;;;;64.10;28.15;;;;;;;1.26;79.59;96578.66;5093043;28;20024;-76
2021/11/28 07:58:58;;;;;;;64.78;30.60;;;;;;;1.29;78.99;96578.91;5092972;28;20032;-76
2021/11/28 08:01:24;;;;;;;58.08;26.08;;;;;;;1.32;79.39;96577.53;5093220;28;20039;-76
2021/11/28 08:03:50;;;;;;;55.17;22.65;;;;;;;1.40;79.11;96579.66;5092939;28;20069;-76
2021/11/28 08:06:16;;;;;;;58.83;24.65;;;;;;;1.46;79.47;96589.28;5093217;28;20047;-76
2021/11/28 08:08:42;;;;;;;47.75;21.55;;;;;;;1.49;79.02;96593.34;5093326;28;20539;-76
2021/11/28 08:11:08;;;;;;;67.38;29.52;;;;;;;1.51;79.23;96584.94;5092931;28;20048;-76
2021/11/28 08:13:34;;;;;;;67.93;30.30;;;;;;;1.59;79.60;96587.03;5093222;28;20412;-76
2021/11/28 08:15:59;;;;;;;62.38;28.30;;;;;;;1.58;79.17;96574.63;5092888;28;20020;-76
2021/11/28 08:18:25;;;;;;;67.75;27.00;;;;;;;1.55;78.94;96569.78;5092632;28;20017;-76
2021/11/28 08:20:50;;;;;;;72.75;28.42;;;;;;;1.49;78.63;96569.81;5092465;28;20066;-76
2021/11/28 08:23:16;;;;;;;72.45;26.95;;;;;;;1.49;79.62;96569.03;5092129;28;20029;-76
2021/11/28 08:25:41;;;;;;;67.85;28.48;;;;;;;1.45;79.21;96579.56;5092152;28;20043;-76
2021/11/28 08:28:08;;;;;;;197.40;84.93;;;;;;;1.33;79.16;96584.56;5091735;28;20475;-76
2021/11/28 08:30:35;;;;;;;171.60;76.90;;;;;;;1.16;78.18;96584.97;5091769;28;20748;-76
2021/11/28 08:33:01;;;;;;;151.77;66.38;;;;;;;1.01;78.39;96589.38;5092328;28;20028;-76
2021/11/28 08:35:29;;;;;;;126.13;60.10;;;;;;;0.93;79.17;96592.66;5092839;28;20126;-76
2021/11/28 08:37:55;;;;;;;91.82;45.08;;;;;;;0.85;78.65;96599.47;5092350;28;20103;-76
2021/11/28 08:40:21;;;;;;;81.00;40.15;;;;;;;0.68;78.86;96604.41;5074905;28;20115;-76
2021/11/28 08:42:46;;;;;;;103.55;53.17;;;;;;;0.56;78.82;96608.25;5092177;28;20032;-76
2021/11/28 08:45:13;;;;;;;106.10;50.63;;;;;;;0.42;78.64;96612.63;5092833;28;20503;-76
2021/11/28 08:47:39;;;;;;;104.10;45.42;;;;;;;0.35;79.57;96604.84;5092375;28;20063;-76
2021/11/28 08:50:06;;;;;;;93.57;40.35;;;;;;;0.34;79.15;96599.72;5092378;28;20103;-76
2021/11/28 08:52:31;;;;;;;79.55;36.03;;;;;;;0.34;80.05;96591.63;5092019;28;20123;-76
2021/11/28 08:54:57;;;;;;;94.82;40.70;;;;;;;0.27;79.40;96592.72;5092373;28;20527;-76
2021/11/28 08:57:22;;;;;;;102.55;42.13;;;;;;;0.26;80.11;96599.19;5091891;28;20039;-76
2021/11/28 08:59:49;;;;;;;86.90;38.67;;;;;;;0.24;79.62;96597.88;5092373;28;20511;-76
2021/11/28 09:02:16;;;;;;;104.00;41.75;;;;;;;0.21;79.50;96599.19;5091310;28;20036;-76
2021/11/28 09:04:42;;;;;;;111.47;46.20;;;;;;;0.21;80.12;96593.81;5091691;28;20472;-76
2021/11/28 09:07:07;;;;;;;99.88;42.75;;;;;;;0.25;79.72;96588.69;5091505;28;20038;-76
2021/11/28 09:09:34;;;;;;;79.95;36.22;;;;;;;0.31;80.48;96575.97;5092137;28;20036;-76
2021/11/28 09:11:59;;;;;;;84.65;37.85;;;;;;;0.41;79.95;96581.34;5091246;28;20028;-76
2021/11/28 09:14:26;;;;;;;59.60;25.98;;;;;;;0.43;79.96;96574.56;5092184;28;20042;-75
2021/11/28 09:16:51;;;;;;;70.45;31.38;;;;;;;0.49;80.37;96566.47;5091525;28;20114;-75
2021/11/28 09:19:21;;;;;;;65.70;28.50;;;;;;;0.56;80.18;96558.88;5091362;28;20112;-74
2021/11/28 09:21:47;;;;;;;56.03;24.33;;;;;;;0.64;80.55;96552.91;5091603;28;20027;-75
2021/11/28 09:26:57;;;;;;;54.75;25.15;;;;;;;0.76;80.37;96540.97;5091892;28;20035;-75
2021/11/28 09:29:23;;;;;;;54.38;23.50;;;;;;;0.78;79.81;96533.41;5091872;28;20030;-76
2021/11/28 09:31:48;;;;;;;52.13;23.52;;;;;;;0.78;80.44;96528.78;5091382;28;20044;-76
2021/11/28 09:34:14;;;;;;;47.28;22.40;;;;;;;0.76;80.02;96522.06;5073242;28;20359;-75
2021/11/28 09:36:39;;;;;;;59.13;26.88;;;;;;;0.76;80.29;96528.28;5091688;28;20062;-76
2021/11/28 09:39:05;;;;;;;61.03;31.33;;;;;;;0.78;80.28;96518.00;5091458;28;20032;-77
2021/11/28 09:41:34;;;;;;;66.30;32.92;;;;;;;0.76;80.03;96528.28;5091571;28;20027;-76
2021/11/28 09:44:03;;;;;;;69.13;33.80;;;;;;;0.73;79.64;96518.84;5091451;28;20498;-77
2021/11/28 09:46:29;;;;;;;67.72;33.50;;;;;;;0.73;79.68;96504.53;5091617;28;20032;-76
2021/11/28 09:49:01;;;;;;;72.40;35.20;;;;;;;0.71;79.77;96504.00;5090955;28;20027;-77
2021/11/28 09:51:28;;;;;;;68.65;34.85;;;;;;;0.72;79.75;96492.97;5091215;28;20016;-76
2021/11/28 09:54:03;;;;;;;70.00;33.42;;;;;;;0.78;79.53;96492.94;5091654;28;20074;-76
2021/11/28 09:56:34;;;;;;;66.50;31.35;;;;;;;0.80;80.17;96483.44;5091116;28;20067;-76
2021/11/28 09:59:02;;;;;;;69.65;33.25;;;;;;;0.80;79.78;96485.34;5091095;28;20028;-77
2021/11/28 10:01:28;;;;;;;78.00;36.97;;;;;;;0.84;79.95;96481.81;5091293;28;20039;-77
2021/11/28 10:03:54;;;;;;;76.22;33.95;;;;;;;0.87;80.02;96475.03;5093341;28;20380;-78
2021/11/28 10:06:20;;;;;;;69.53;31.33;;;;;;;0.87;80.11;96478.53;5095257;28;20035;-79
2021/11/28 10:08:47;;;;;;;70.97;31.25;;;;;;;0.86;79.65;96476.94;5094364;28;20498;-77
2021/11/28 10:11:18;;;;;;;74.97;32.95;;;;;;;0.87;79.40;96475.03;5092965;28;20110;-78
2021/11/28 10:13:44;;;;;;;68.40;31.63;;;;;;;0.89;79.80;96462.03;5093183;28;20035;-80
2021/11/28 10:16:10;;;;;;;76.63;35.22;;;;;;;0.92;79.61;96466.09;5075230;28;20032;-79
2021/11/28 10:18:36;;;;;;;78.35;36.22;;;;;;;0.88;80.07;96461.25;5092799;28;20024;-79
2021/11/28 10:21:02;;;;;;;83.05;37.10;;;;;;;0.90;80.36;96463.66;5093557;28;20032;-79
2021/11/28 10:23:27;;;;;;;83.28;37.97;;;;;;;0.88;80.23;96463.97;5092638;28;20028;-79
2021/11/28 10:26:12;;;;;;;79.18;36.28;;;;;;;0.94;79.76;96453.13;5091702;28;20119;-79
2021/11/28 10:29:13;;;;;;;82.75;37.22;;;;;;;1.00;80.37;96452.78;5091376;28;20020;-79
2021/11/28 10:31:48;;;;;;;85.28;39.47;;;;;;;1.00;80.24;96450.09;5073068;28;20047;-79
2021/11/28 10:34:19;;;;;;;81.03;37.03;;;;;;;1.02;79.60;96444.38;5090725;28;20044;-79
2021/11/28 10:36:46;;;;;;;165.25;56.80;;;;;;;1.03;79.64;96436.03;5090503;28;20134;-80
2021/11/28 10:39:17;;;;;;;124.82;47.50;;;;;;;0.98;80.03;96427.19;5071982;28;20035;-80
2021/11/28 10:41:52;;;;;;;214.60;94.32;;;;;;;0.97;80.12;96422.88;5089878;28;20032;-80
2021/11/28 10:44:24;;;;;;;713.30;402.67;;;;;;;0.95;79.64;96416.94;5090321;28;20024;-80
2021/11/28 10:46:50;;;;;;;499.33;269.10;;;;;;;0.94;80.11;96410.72;5072393;28;20493;-79
2021/11/28 10:49:21;;;;;;;339.42;147.57;;;;;;;0.97;79.69;96414.78;5090311;28;20031;-79
2021/11/28 10:51:49;;;;;;;289.48;114.68;;;;;;;0.99;79.69;96409.88;5089554;28;20052;-79
2021/11/28 10:54:32;;;;;;;217.32;88.32;;;;;;;0.99;80.04;96402.59;5090707;28;20455;-80
2021/11/28 10:57:07;;;;;;;262.45;87.70;;;;;;;1.02;79.58;96401.19;5090474;28;20030;-80
2021/11/28 10:59:34;;;;;;;321.70;104.03;;;;;;;1.04;80.27;96397.13;5090423;28;20116;-80
2021/11/28 11:02:00;;;;;;;296.23;105.53;;;;;;;1.06;80.27;96396.84;5090229;28;20020;-79
2021/11/28 11:04:31;;;;;;;354.17;140.13;;;;;;;1.09;80.56;96390.88;5090452;28;20028;-79
2021/11/28 11:07:12;;;;;;;331.70;122.72;;;;;;;1.14;80.76;96384.63;5090344;28;20035;-79
2021/11/28 11:09:43;;;;;;;383.52;141.50;;;;;;;1.14;80.56;96382.72;5090295;28;20572;-79
2021/11/28 11:12:32;;;;;;;458.10;166.95;;;;;;;1.15;80.61;96373.53;5089935;28;20109;-79
2021/11/28 11:14:58;;;;;;;341.50;115.90;;;;;;;1.17;80.41;96376.75;5090248;28;20040;-78
2021/11/28 11:17:26;;;;;;;280.40;102.20;;;;;;;1.23;80.34;96371.31;5071992;28;20020;-79
2021/11/28 11:19:52;;;;;;;234.85;87.88;;;;;;;1.27;79.97;96361.53;5089336;28;20036;-79
2021/11/28 11:22:30;;;;;;;240.35;90.38;;;;;;;1.29;80.33;96360.16;5089385;28;20422;-79
2021/11/28 11:25:06;;;;;;;210.60;89.18;;;;;;;1.29;80.42;96359.34;5071558;28;20043;-80